John Murtha Johnstown Cambria County Airport
KJST : now visible

Airfield :











YOU CAN JOIN US ON...

 
LOGIN :

Register | Disclaimer

   EN    FR    IT 

 









Legend :    VFR   Marginal VFR   IFR   Intensive IFR   Very Intensive IFR
Visi :
Ceiling :
>= 8 km
>= 3000ft
5 to 8 km
1000 to 3000 ft
1500m to 5 km
500 to 1000 ft
800 to 1500m
200 to 500 ft
< 800m
< 200 ft
Symbols :   Thunderstorms  Fog  Heavy snow  Heavy precipitations  Wind > 20 kt






- Airport Elevation : 2284 ft
- IATA code : JST


KJST - John Murtha Johnstown Cambria County

CURRENT METAR :
  • 180354Z AUTO 23005KT 10SM CLR 23/19 A3022 RMK AO2 SLP215 T02330189

EXPIRED METARs :
  • 180254Z AUTO 20005KT 10SM CLR 24/19 A3022 RMK AO2 SLP214 T02390189 53013
  • 180154Z AUTO 10004KT 10SM CLR 23/19 A3020 RMK AO2 SLP208 T02280189
  • 180054Z AUTO 17007KT 10SM CLR 24/19 A3019 RMK AO2 PRESRR SLP205 T02440189
  • 172354Z AUTO 13004KT 10SM FEW046 FEW100 23/19 A3018 RMK AO2 LTG DSNT E RAB23E45 SLP205 P0001 60001 T02330194 10317 20233 50007

TAF KJST
Valid from the 18 at 03:00 until the 19 at 00:00 UTC


180311Z 1803/1824 17004KT P6SM SCT040
FM181700 20005KT P6SM SCT030 BKN100
KZOB FIR / North America



MET'MAP, your aeronautical weather chart ! - Copyright ORBIFLY December 2007 - Disclaimer

ORBIFLY MET'MAP TEAM :

Programming & Development : Alexandra Zaïnal
Original concept : Baudouin d'Aumeries
Technical & hardware support : Manuel Goepfert
Assistance : Marc-Olivier Méhu




SOURCES & CREDITS :

   NOAA       Earth
Advisory